Main page
METAR-TAF:

METAR-TAF

Airports :

Winnemucca Municipal Airport

Winnemucca, Nevada, United States

latitude: 40-54-07N, longitude: 117-48-26W, elevation: 4300 ft

Current weather observation

The report was made 46 minutes ago, at 10:56 UTC
Wind 6 mph from the West/Southwest
Temperature 32°F
Humidity 74%
Pressure 30.15 in. Hg
Visibility: 10 miles
Broken clouds at a height of 3900 ft
Overcast at a height of 5000 ft

METAR: KWMC 081056Z AUTO 25005KT 10SM BKN039 OVC050 00/M04 A3015 RMK AO2 SLP213 T00001039

Time: 03:42 (11:42 UTC)

Forecast

The report was made 6 hours and 22 minutes ago, at 05:20 UTC
Forecast valid from 08 at 06 UTC to 09 at 06 UTC
Wind 10 mph from the West
Visibility: 6 miles
Scattered clouds at a height of 8000 ft
Overcast at a height of 12000 ft
From 08 at 1800 UTC
Wind 17 mph from the West with gusts up to 29 mph
Visibility: 6 miles
Scattered clouds at a height of 10000 ft

TAF: KWMC 080520Z 0806/0906 28009KT P6SM SCT080 OVC120 FM081800 28015G25KT P6SM SCT100

Weather observations and forecasts of more than 4000 airports (METAR and TAF reports).

The available stations are represented by yellow and red dots on the map.

Hover mouse over dot to see the name of the station.

Then click to see weather observations and forecasts.

To change the map : click on the green buttons with a black cross to zoom in, on the green button with a dash to zoom out, or on the green arrows for adjacent maps.


METAR-TAF: